createdAt,value
2023-01-29T00:00:09.964Z,83.51
2023-01-29T00:01:11.841Z,83.45
2023-01-29T00:02:13.417Z,83.08
2023-01-29T00:03:16.015Z,83.76
2023-01-29T00:04:18.184Z,83.85
2023-01-29T00:05:28.456Z,82.81
2023-01-29T00:06:30.656Z,83.01
2023-01-29T00:07:32.550Z,83.93
2023-01-29T00:08:38.621Z,83.96
2023-01-29T00:09:40.429Z,83.31
2023-01-29T00:10:41.841Z,83.76
2023-01-29T00:11:43.572Z,83.73
2023-01-29T00:12:44.970Z,82.66
2023-01-29T00:13:46.701Z,82.97
2023-01-29T00:14:48.166Z,82.99
2023-01-29T00:15:57.438Z,83.79
2023-01-29T00:16:58.839Z,82.71
2023-01-29T00:18:00.249Z,83.71
2023-01-29T00:19:02.636Z,82.41
2023-01-29T00:20:04.341Z,81.89
2023-01-29T00:21:13.469Z,83.31
2023-01-29T00:22:14.953Z,82.67
2023-01-29T00:23:16.543Z,83.86
2023-01-29T00:24:18.166Z,84.72
2023-01-29T00:25:19.597Z,84.81
2023-01-29T00:26:21.073Z,83.81
2023-01-29T00:27:22.513Z,83.71
2023-01-29T00:28:23.962Z,83.31
2023-01-29T00:29:25.409Z,85.07
2023-01-29T00:30:26.822Z,85.02
2023-01-29T00:31:28.727Z,84.48
2023-01-29T00:32:30.203Z,83.75
2023-01-29T00:33:31.643Z,83.00
2023-01-29T00:34:33.070Z,83.85
2023-01-29T00:35:35.114Z,83.71
2023-01-29T00:36:36.579Z,83.63
2023-01-29T00:37:38.454Z,83.13
2023-01-29T00:38:40.112Z,83.16
2023-01-29T00:39:47.805Z,83.06
2023-01-29T00:41:08.469Z,83.01
2023-01-29T00:42:28.250Z,82.62
2023-01-29T00:43:48.102Z,83.16
2023-01-29T00:44:58.745Z,83.39
2023-01-29T00:46:00.176Z,84.15
2023-01-29T00:47:02.429Z,82.99
2023-01-29T00:48:04.259Z,82.84
2023-01-29T00:49:07.076Z,83.03
2023-01-29T00:50:11.119Z,83.57
2023-01-29T00:51:12.567Z,84.49
2023-01-29T00:52:26.027Z,83.81
2023-01-29T00:53:28.013Z,83.99
2023-01-29T00:54:30.099Z,82.66
2023-01-29T00:55:32.426Z,83.36
2023-01-29T00:56:36.690Z,83.81
2023-01-29T00:57:39.011Z,84.07
2023-01-29T00:58:40.508Z,85.10
2023-01-29T00:59:41.970Z,83.38
2023-01-29T01:00:43.510Z,83.26
2023-01-29T01:02:03.568Z,83.28
2023-01-29T01:03:07.904Z,82.91
2023-01-29T01:04:11.354Z,83.54
2023-01-29T01:05:18.189Z,83.36
2023-01-29T01:06:19.774Z,83.54
2023-01-29T01:07:21.198Z,83.26
2023-01-29T01:08:41.367Z,83.55
2023-01-29T01:10:01.096Z,83.94
2023-01-29T01:11:05.332Z,84.23
2023-01-29T01:12:06.794Z,83.50
2023-01-29T01:13:08.367Z,84.47
2023-01-29T01:14:09.808Z,83.95
2023-01-29T01:15:11.882Z,83.97
2023-01-29T01:16:15.511Z,83.71
2023-01-29T01:17:17.415Z,84.65
2023-01-29T01:18:22.183Z,84.27
2023-01-29T01:19:23.611Z,84.84
2023-01-29T01:20:27.062Z,83.82
2023-01-29T01:21:28.479Z,83.88
2023-01-29T01:22:31.116Z,84.09
2023-01-29T01:23:33.256Z,84.36
2023-01-29T01:24:34.573Z,84.41
2023-01-29T01:25:36.353Z,84.31
2023-01-29T01:26:37.815Z,84.98
2023-01-29T01:27:41.261Z,84.36
2023-01-29T01:28:42.736Z,84.93
2023-01-29T01:29:44.149Z,85.38
2023-01-29T01:30:45.669Z,85.00
2023-01-29T01:31:47.142Z,83.04
2023-01-29T01:32:48.847Z,83.27
2023-01-29T01:33:51.577Z,83.34
2023-01-29T01:34:53.598Z,84.33
2023-01-29T01:35:55.024Z,84.01
2023-01-29T01:36:56.574Z,83.42
2023-01-29T01:37:58.128Z,83.91
2023-01-29T01:38:59.586Z,83.16
2023-01-29T01:40:00.974Z,83.64
2023-01-29T01:41:02.400Z,84.13
2023-01-29T01:42:03.967Z,83.54
2023-01-29T01:43:06.173Z,83.33
2023-01-29T01:44:07.805Z,83.71
2023-01-29T01:45:19.915Z,83.92
2023-01-29T01:46:22.229Z,84.23
2023-01-29T01:47:29.384Z,83.65
2023-01-29T01:48:30.830Z,84.18
2023-01-29T01:49:32.260Z,84.23
2023-01-29T01:50:49.769Z,84.87
2023-01-29T01:51:52.583Z,84.55
2023-01-29T01:52:59.892Z,84.43
2023-01-29T01:54:09.934Z,85.43
2023-01-29T01:55:14.697Z,84.87
2023-01-29T01:56:27.808Z,84.59
2023-01-29T01:57:32.099Z,85.11
2023-01-29T01:58:37.448Z,84.33
2023-01-29T01:59:40.879Z,83.85
2023-01-29T02:00:42.791Z,84.78
2023-01-29T02:01:50.118Z,84.35
2023-01-29T02:03:10.497Z,85.05
2023-01-29T02:04:35.295Z,84.69
2023-01-29T02:05:56.613Z,85.04
2023-01-29T02:07:19.495Z,84.06
2023-01-29T02:08:50.873Z,85.16
2023-01-29T02:09:58.079Z,84.40
2023-01-29T02:11:00.154Z,85.00
2023-01-29T02:12:03.839Z,85.56
2023-01-29T02:13:07.295Z,86.02
2023-01-29T02:14:09.302Z,85.23
2023-01-29T02:15:11.477Z,84.65
2023-01-29T02:16:12.788Z,84.21
2023-01-29T02:17:16.898Z,84.97
2023-01-29T02:18:21.489Z,85.03
2023-01-29T02:19:47.112Z,86.17
2023-01-29T02:21:34.745Z,84.57
2023-01-29T02:22:54.979Z,84.62
2023-01-29T02:23:56.408Z,85.39
2023-01-29T02:25:16.602Z,85.55
2023-01-29T02:26:40.890Z,85.67
2023-01-29T02:27:48.354Z,85.13
2023-01-29T02:29:25.350Z,85.58
2023-01-29T02:30:46.143Z,85.02
2023-01-29T02:31:57.015Z,86.06
2023-01-29T02:33:16.570Z,86.33
2023-01-29T02:34:27.590Z,86.63
2023-01-29T02:35:34.565Z,86.01
2023-01-29T02:36:45.649Z,85.50
2023-01-29T02:38:05.083Z,85.85
2023-01-29T02:39:21.246Z,84.98
2023-01-29T02:40:36.932Z,85.09
2023-01-29T02:42:00.827Z,85.92
2023-01-29T02:43:06.441Z,85.74
2023-01-29T02:44:22.794Z,85.35
2023-01-29T02:45:59.684Z,86.04
2023-01-29T02:47:21.954Z,85.03
2023-01-29T02:48:27.616Z,84.62
2023-01-29T02:49:34.118Z,85.02
2023-01-29T02:50:57.873Z,85.03
2023-01-29T02:52:14.931Z,85.54
2023-01-29T02:53:27.341Z,85.37
2023-01-29T02:54:41.911Z,84.56
2023-01-29T02:56:02.694Z,85.53
2023-01-29T02:57:16.428Z,85.57
2023-01-29T02:58:44.133Z,84.30
2023-01-29T02:59:55.400Z,85.00
2023-01-29T03:01:04.436Z,84.12
2023-01-29T03:02:12.962Z,85.72
2023-01-29T03:03:19.035Z,85.15
2023-01-29T03:04:25.857Z,84.08
2023-01-29T03:05:35.102Z,85.30
2023-01-29T03:06:42.111Z,84.14
2023-01-29T03:07:52.013Z,85.11
2023-01-29T03:09:01.141Z,85.35
2023-01-29T03:10:08.243Z,84.18
2023-01-29T03:11:14.807Z,84.32
2023-01-29T03:12:33.858Z,84.31
2023-01-29T03:13:43.248Z,84.02
2023-01-29T03:15:07.601Z,84.73
2023-01-29T03:16:32.557Z,84.60
2023-01-29T03:17:41.076Z,84.17
2023-01-29T03:19:05.873Z,84.93
2023-01-29T03:20:13.835Z,85.24
2023-01-29T03:21:41.216Z,83.77
2023-01-29T03:22:48.843Z,84.28
2023-01-29T03:24:08.654Z,84.12
2023-01-29T03:25:30.995Z,84.03
2023-01-29T03:26:50.706Z,83.82
2023-01-29T03:28:22.943Z,85.15
2023-01-29T03:29:43.237Z,84.30
2023-01-29T03:31:10.724Z,84.79
2023-01-29T03:32:14.588Z,84.74
2023-01-29T03:33:19.330Z,84.26
2023-01-29T03:34:28.369Z,85.34
2023-01-29T03:35:37.445Z,84.69
2023-01-29T03:36:56.290Z,85.33
2023-01-29T03:37:57.733Z,85.55
2023-01-29T03:38:59.418Z,84.74
2023-01-29T03:40:05.401Z,84.89
2023-01-29T03:41:16.456Z,84.86
2023-01-29T03:42:26.599Z,84.43
2023-01-29T03:43:33.673Z,85.61
2023-01-29T03:44:40.251Z,84.99
2023-01-29T03:46:00.108Z,85.93
2023-01-29T03:47:43.398Z,85.10
2023-01-29T03:48:54.484Z,85.94
2023-01-29T03:50:19.530Z,86.10
2023-01-29T03:51:32.441Z,84.73
2023-01-29T03:52:47.213Z,85.22
2023-01-29T03:53:55.436Z,86.11
2023-01-29T03:54:57.677Z,86.37
2023-01-29T03:56:08.547Z,85.73
2023-01-29T03:57:33.452Z,86.14
2023-01-29T03:58:47.593Z,85.25
2023-01-29T03:59:57.792Z,86.29
2023-01-29T04:01:09.045Z,86.48
2023-01-29T04:02:15.504Z,86.05
2023-01-29T04:03:33.243Z,86.82
2023-01-29T04:04:37.555Z,86.68
2023-01-29T04:06:11.657Z,86.75
2023-01-29T04:07:24.408Z,86.80
2023-01-29T04:08:30.474Z,87.45
2023-01-29T04:09:37.337Z,85.79
2023-01-29T04:10:41.996Z,86.86
2023-01-29T04:11:49.547Z,85.74
2023-01-29T04:12:59.682Z,86.04
2023-01-29T04:14:01.279Z,86.35
2023-01-29T04:15:09.124Z,86.10
2023-01-29T04:16:16.853Z,85.93
2023-01-29T04:17:24.111Z,85.33
2023-01-29T04:18:25.635Z,85.62
2023-01-29T04:19:28.076Z,86.39
2023-01-29T04:20:29.890Z,85.81
2023-01-29T04:21:32.015Z,85.71
2023-01-29T04:22:35.154Z,85.70
2023-01-29T04:23:36.562Z,86.21
2023-01-29T04:24:38.077Z,86.38
2023-01-29T04:26:06.791Z,85.39
2023-01-29T04:27:29.742Z,85.60
2023-01-29T04:29:16.498Z,85.65
2023-01-29T04:30:18.153Z,85.91
2023-01-29T04:31:27.226Z,86.15
2023-01-29T04:32:40.729Z,85.83
2023-01-29T04:34:05.623Z,85.25
2023-01-29T04:35:41.810Z,85.30
2023-01-29T04:37:02.876Z,86.14
2023-01-29T04:38:10.354Z,84.79
2023-01-29T04:39:28.726Z,85.67
2023-01-29T04:41:02.263Z,85.91
2023-01-29T04:42:14.701Z,84.99
2023-01-29T04:43:24.537Z,85.71
2023-01-29T04:44:37.593Z,85.26
2023-01-29T04:45:47.996Z,85.22
2023-01-29T04:47:03.357Z,84.44
2023-01-29T04:48:30.165Z,85.41
2023-01-29T04:49:43.846Z,84.83
2023-01-29T04:50:56.637Z,84.60
2023-01-29T04:52:07.095Z,84.66
2023-01-29T04:53:37.449Z,84.97
2023-01-29T04:54:54.266Z,85.05
2023-01-29T04:56:06.163Z,85.54
2023-01-29T04:57:17.965Z,85.85
2023-01-29T04:58:33.120Z,85.87
2023-01-29T04:59:44.987Z,85.82
2023-01-29T05:00:53.444Z,85.89
2023-01-29T05:01:55.531Z,86.66
2023-01-29T05:02:57.525Z,86.02
2023-01-29T05:04:02.093Z,85.75
2023-01-29T05:05:06.112Z,85.80
2023-01-29T05:06:09.942Z,86.43
2023-01-29T05:07:14.388Z,85.61
2023-01-29T05:08:21.654Z,85.58
2023-01-29T05:09:25.033Z,86.09
2023-01-29T05:10:27.218Z,85.96
2023-01-29T05:11:30.683Z,85.63
2023-01-29T05:12:34.155Z,85.70
2023-01-29T05:13:40.533Z,86.87
2023-01-29T05:14:44.471Z,86.01
2023-01-29T05:15:52.424Z,86.80
2023-01-29T05:16:58.234Z,87.96
2023-01-29T05:18:02.875Z,88.20
2023-01-29T05:19:04.315Z,88.02
2023-01-29T05:20:07.065Z,88.11
2023-01-29T05:21:09.463Z,87.31
2023-01-29T05:22:15.403Z,87.67
2023-01-29T05:23:18.764Z,86.94
2023-01-29T05:24:22.449Z,87.96
2023-01-29T05:25:26.712Z,87.81
2023-01-29T05:26:46.451Z,86.91
2023-01-29T05:28:11.848Z,86.61
2023-01-29T05:29:13.291Z,86.56
2023-01-29T05:30:15.112Z,87.33
2023-01-29T05:31:16.880Z,87.88
2023-01-29T05:32:18.443Z,86.85
2023-01-29T05:33:29.014Z,87.07
2023-01-29T05:34:30.615Z,88.64
2023-01-29T05:35:32.311Z,87.72
2023-01-29T05:36:33.708Z,88.88
2023-01-29T05:37:35.153Z,90.01
2023-01-29T05:38:36.540Z,90.07
2023-01-29T05:39:37.965Z,91.25
2023-01-29T05:40:39.423Z,90.58
2023-01-29T05:41:41.089Z,91.54
2023-01-29T05:42:42.541Z,91.49
2023-01-29T05:43:43.979Z,92.84
2023-01-29T05:44:45.589Z,93.07
2023-01-29T05:45:55.491Z,93.65
2023-01-29T05:46:57.128Z,93.20
2023-01-29T05:48:00.006Z,93.19
2023-01-29T05:49:01.459Z,94.04
2023-01-29T05:50:02.940Z,94.29
2023-01-29T05:51:05.180Z,94.63
2023-01-29T05:52:06.559Z,94.97
2023-01-29T05:53:09.349Z,94.32
2023-01-29T05:54:13.920Z,93.74
2023-01-29T05:55:15.469Z,94.88
2023-01-29T05:56:16.870Z,94.98
2023-01-29T05:57:18.310Z,94.98
2023-01-29T05:58:19.818Z,94.93
2023-01-29T05:59:21.384Z,94.46
2023-01-29T06:00:23.078Z,95.79
2023-01-29T06:01:26.350Z,95.70
2023-01-29T06:02:31.571Z,95.21
2023-01-29T06:03:33.093Z,96.05
2023-01-29T06:04:34.513Z,96.29
2023-01-29T06:05:39.613Z,95.13
2023-01-29T06:06:41.019Z,95.60
2023-01-29T06:07:45.234Z,95.86
2023-01-29T06:08:47.306Z,95.30
2023-01-29T06:09:48.778Z,95.07
2023-01-29T06:10:50.204Z,95.36
2023-01-29T06:11:51.687Z,94.91
2023-01-29T06:12:53.123Z,94.84
2023-01-29T06:13:54.699Z,95.31
2023-01-29T06:14:56.121Z,95.58
2023-01-29T06:15:57.629Z,95.67
2023-01-29T06:16:59.344Z,95.59
2023-01-29T06:18:00.783Z,95.92
2023-01-29T06:19:02.186Z,96.04
2023-01-29T06:20:04.845Z,96.13
2023-01-29T06:21:09.337Z,95.78
2023-01-29T06:22:10.922Z,95.60
2023-01-29T06:23:12.433Z,95.66
2023-01-29T06:24:14.025Z,96.31
2023-01-29T06:25:15.730Z,96.29
2023-01-29T06:26:17.160Z,96.12
2023-01-29T06:27:18.900Z,95.89
2023-01-29T06:28:20.313Z,96.20
2023-01-29T06:29:21.798Z,95.55
2023-01-29T06:30:23.372Z,95.99
2023-01-29T06:31:37.976Z,95.46
2023-01-29T06:32:40.562Z,95.60
2023-01-29T06:33:42.034Z,95.69
2023-01-29T06:34:43.448Z,95.35
2023-01-29T06:35:44.865Z,96.24
2023-01-29T06:36:46.686Z,96.14
2023-01-29T06:37:48.165Z,96.21
2023-01-29T06:38:49.616Z,96.21
2023-01-29T06:39:51.105Z,96.02
2023-01-29T06:40:55.492Z,96.24
2023-01-29T06:41:56.958Z,96.20
2023-01-29T06:43:00.541Z,95.79
2023-01-29T06:44:01.996Z,96.07
2023-01-29T06:45:03.688Z,96.06
2023-01-29T06:46:07.566Z,95.93
2023-01-29T06:47:08.970Z,96.38
2023-01-29T06:48:10.377Z,96.79
2023-01-29T06:49:11.822Z,96.78
2023-01-29T06:50:13.295Z,96.05
2023-01-29T06:51:14.772Z,95.67
2023-01-29T06:52:16.381Z,96.12
2023-01-29T06:53:18.275Z,95.98
2023-01-29T06:54:19.734Z,96.45
2023-01-29T06:55:21.140Z,95.71
2023-01-29T06:56:23.631Z,95.96
2023-01-29T06:57:25.172Z,96.29
2023-01-29T06:58:26.702Z,96.46
2023-01-29T06:59:28.132Z,96.26
2023-01-29T07:00:31.298Z,96.25
2023-01-29T07:01:36.368Z,95.95
2023-01-29T07:02:38.164Z,96.48
2023-01-29T07:03:41.492Z,96.60
2023-01-29T07:04:42.950Z,96.59
2023-01-29T07:05:50.839Z,96.63
2023-01-29T07:06:52.265Z,96.36
2023-01-29T07:07:54.111Z,96.14
2023-01-29T07:08:55.810Z,96.79
2023-01-29T07:09:57.206Z,96.84
2023-01-29T07:11:00.909Z,96.25
2023-01-29T07:12:02.327Z,96.44
2023-01-29T07:13:03.717Z,96.40
2023-01-29T07:14:05.587Z,96.30
2023-01-29T07:15:07.620Z,96.46
2023-01-29T07:16:09.618Z,95.93
2023-01-29T07:17:11.140Z,96.20
2023-01-29T07:18:12.622Z,96.32
2023-01-29T07:19:14.231Z,96.11
2023-01-29T07:20:16.131Z,95.53
2023-01-29T07:21:17.733Z,95.69
2023-01-29T07:22:19.137Z,95.31
2023-01-29T07:23:20.566Z,96.33
2023-01-29T07:24:22.145Z,96.09
2023-01-29T07:25:24.712Z,96.33
2023-01-29T07:26:26.308Z,96.45
2023-01-29T07:27:27.692Z,96.09
2023-01-29T07:28:29.409Z,96.55
2023-01-29T07:29:30.903Z,95.19
2023-01-29T07:30:32.395Z,95.88
2023-01-29T07:31:34.352Z,95.45
2023-01-29T07:32:35.876Z,95.47
2023-01-29T07:33:37.328Z,95.83
2023-01-29T07:34:38.727Z,95.89
2023-01-29T07:35:42.217Z,96.29
2023-01-29T07:36:43.629Z,96.29
2023-01-29T07:37:45.102Z,96.61
2023-01-29T07:38:50.541Z,96.35
2023-01-29T07:39:52.052Z,96.14
2023-01-29T07:40:53.821Z,96.01
2023-01-29T07:41:55.235Z,96.44
2023-01-29T07:43:05.208Z,96.02
2023-01-29T07:44:06.618Z,95.80
2023-01-29T07:45:08.686Z,96.09
2023-01-29T07:46:10.133Z,95.87
2023-01-29T07:47:12.221Z,96.58
2023-01-29T07:48:14.104Z,96.02
2023-01-29T07:49:16.566Z,95.62
2023-01-29T07:50:18.291Z,95.96
2023-01-29T07:51:21.345Z,95.77
2023-01-29T07:52:22.800Z,95.90
2023-01-29T07:53:25.243Z,95.57
2023-01-29T07:54:26.661Z,96.14
2023-01-29T07:55:28.354Z,95.97
2023-01-29T07:56:29.825Z,95.56
2023-01-29T07:57:31.260Z,96.64
2023-01-29T07:58:34.410Z,96.56
2023-01-29T07:59:37.000Z,96.63
2023-01-29T08:00:38.720Z,96.50
2023-01-29T08:01:40.122Z,96.02
2023-01-29T08:02:41.973Z,95.82
2023-01-29T08:03:43.386Z,95.62
2023-01-29T08:04:44.852Z,95.76
2023-01-29T08:05:47.012Z,96.27
2023-01-29T08:06:48.417Z,96.59
2023-01-29T08:08:05.739Z,96.33
2023-01-29T08:09:08.792Z,96.24
2023-01-29T08:10:10.858Z,96.08
2023-01-29T08:11:12.264Z,95.76
2023-01-29T08:12:14.405Z,95.84
2023-01-29T08:13:15.726Z,95.88
2023-01-29T08:14:17.212Z,95.70
2023-01-29T08:15:18.647Z,96.02
2023-01-29T08:16:20.105Z,95.66
2023-01-29T08:17:21.586Z,96.37
2023-01-29T08:18:23.003Z,96.50
2023-01-29T08:19:24.456Z,96.17
2023-01-29T08:20:26.327Z,95.81
2023-01-29T08:21:27.904Z,96.25
2023-01-29T08:22:29.355Z,96.18
2023-01-29T08:23:30.838Z,95.92
2023-01-29T08:24:47.437Z,96.53
2023-01-29T08:25:54.165Z,95.78
2023-01-29T08:26:55.679Z,96.13
2023-01-29T08:27:58.082Z,96.20
2023-01-29T08:28:59.578Z,95.94
2023-01-29T08:30:01.058Z,95.95
2023-01-29T08:31:02.596Z,96.32
2023-01-29T08:32:04.126Z,96.35
2023-01-29T08:33:05.643Z,96.36
2023-01-29T08:34:07.119Z,96.33
2023-01-29T08:35:09.073Z,96.42
2023-01-29T08:36:10.751Z,96.35
2023-01-29T08:37:12.202Z,95.89
2023-01-29T08:38:13.635Z,96.18
2023-01-29T08:39:15.242Z,96.56
2023-01-29T08:40:16.993Z,96.32
2023-01-29T08:41:18.527Z,96.93
2023-01-29T08:42:19.961Z,97.07
2023-01-29T08:43:21.360Z,96.39
2023-01-29T08:44:22.786Z,96.58
2023-01-29T08:45:24.230Z,96.67
2023-01-29T08:46:25.954Z,96.97
2023-01-29T08:47:28.740Z,96.45
2023-01-29T08:48:31.248Z,96.87
2023-01-29T08:49:32.742Z,96.51
2023-01-29T08:50:35.051Z,96.55
2023-01-29T08:51:36.491Z,95.99
2023-01-29T08:52:37.950Z,96.09
2023-01-29T08:53:39.369Z,96.35
2023-01-29T08:54:40.781Z,95.64
2023-01-29T08:55:42.219Z,96.78
2023-01-29T08:56:44.005Z,96.28
2023-01-29T08:57:45.487Z,96.92
2023-01-29T08:58:46.931Z,96.31
2023-01-29T08:59:48.361Z,96.61
2023-01-29T09:00:49.785Z,96.10
2023-01-29T09:01:51.250Z,96.35
2023-01-29T09:02:52.662Z,96.55
2023-01-29T09:03:54.061Z,96.21
2023-01-29T09:04:55.796Z,96.19
2023-01-29T09:05:57.218Z,96.43
2023-01-29T09:06:58.718Z,96.47
2023-01-29T09:08:00.182Z,96.25
2023-01-29T09:09:01.700Z,96.37
2023-01-29T09:10:03.594Z,96.19
2023-01-29T09:11:05.302Z,96.01
2023-01-29T09:12:06.944Z,96.47
2023-01-29T09:13:08.375Z,95.94
2023-01-29T09:14:12.239Z,95.74
2023-01-29T09:15:13.702Z,95.96
2023-01-29T09:16:15.201Z,95.77
2023-01-29T09:17:16.638Z,96.20
2023-01-29T09:18:18.243Z,95.46
2023-01-29T09:19:19.664Z,95.50
2023-01-29T09:20:21.226Z,94.99
2023-01-29T09:21:22.627Z,95.50
2023-01-29T09:22:24.362Z,95.38
2023-01-29T09:23:25.841Z,95.38
2023-01-29T09:24:27.277Z,96.03
2023-01-29T09:25:28.713Z,95.08
2023-01-29T09:26:30.248Z,95.19
2023-01-29T09:27:31.749Z,95.33
2023-01-29T09:28:33.200Z,95.10
2023-01-29T09:29:35.955Z,94.40
2023-01-29T09:30:38.181Z,94.71
2023-01-29T09:31:39.817Z,94.44
2023-01-29T09:32:53.157Z,95.07
2023-01-29T09:33:55.255Z,95.21
2023-01-29T09:34:57.454Z,94.88
2023-01-29T09:35:58.921Z,94.79
2023-01-29T09:37:00.369Z,95.04
2023-01-29T09:38:02.047Z,95.01
2023-01-29T09:39:03.565Z,94.90
2023-01-29T09:40:05.719Z,94.02
2023-01-29T09:41:23.839Z,94.46
2023-01-29T09:42:30.767Z,94.49
2023-01-29T09:43:42.962Z,93.50
2023-01-29T09:45:10.499Z,94.81
2023-01-29T09:46:29.188Z,94.44
2023-01-29T09:47:34.564Z,93.89
2023-01-29T09:48:36.824Z,93.99
2023-01-29T09:49:43.489Z,93.03
2023-01-29T09:50:49.784Z,94.21
2023-01-29T09:52:02.499Z,94.28
2023-01-29T09:53:21.955Z,93.91
2023-01-29T09:54:29.761Z,93.07
2023-01-29T09:55:36.396Z,93.22
2023-01-29T09:56:37.894Z,94.77
2023-01-29T09:57:50.010Z,93.93
2023-01-29T09:58:51.561Z,92.95
2023-01-29T09:59:53.121Z,93.72
2023-01-29T10:01:23.368Z,93.55
2023-01-29T10:03:12.474Z,92.33
2023-01-29T10:04:37.437Z,92.88
2023-01-29T10:05:50.813Z,92.59
2023-01-29T10:07:26.513Z,92.11
2023-01-29T10:09:06.522Z,91.89
2023-01-29T10:10:37.472Z,91.61
2023-01-29T10:11:44.361Z,91.87
2023-01-29T10:13:08.054Z,91.96
2023-01-29T10:14:12.205Z,91.66
2023-01-29T10:15:28.793Z,90.72
2023-01-29T10:16:49.124Z,91.02
2023-01-29T10:18:05.556Z,91.09
2023-01-29T10:19:16.238Z,90.60
2023-01-29T10:20:35.833Z,90.39
2023-01-29T10:22:10.670Z,90.47
2023-01-29T10:23:21.188Z,90.33
2023-01-29T10:24:39.194Z,89.78
2023-01-29T10:25:42.146Z,90.09
2023-01-29T10:26:43.659Z,89.97
2023-01-29T10:27:54.869Z,89.51
2023-01-29T10:28:59.470Z,89.08
2023-01-29T10:30:04.194Z,89.33
2023-01-29T10:31:12.535Z,90.20
2023-01-29T10:32:19.934Z,89.76
2023-01-29T10:34:10.925Z,88.49
2023-01-29T10:35:22.042Z,87.90
2023-01-29T10:36:44.229Z,88.09
2023-01-29T10:37:45.875Z,87.90
2023-01-29T10:38:49.060Z,87.79
2023-01-29T10:39:51.187Z,87.62
2023-01-29T10:41:01.058Z,88.99
2023-01-29T10:42:23.694Z,87.64
2023-01-29T10:43:43.925Z,88.46
2023-01-29T10:44:48.227Z,88.78
2023-01-29T10:45:54.876Z,88.08
2023-01-29T10:47:05.713Z,86.77
2023-01-29T10:48:40.883Z,88.90
2023-01-29T10:50:01.008Z,88.10
2023-01-29T10:51:05.292Z,87.14
2023-01-29T10:52:37.640Z,87.01
2023-01-29T10:53:59.380Z,88.00
2023-01-29T10:55:05.288Z,88.72
2023-01-29T10:56:23.678Z,89.47
2023-01-29T10:57:45.224Z,88.21
2023-01-29T10:58:59.443Z,86.77
2023-01-29T11:00:18.901Z,85.36
2023-01-29T11:01:20.747Z,88.05
2023-01-29T11:02:22.707Z,87.08
2023-01-29T11:03:28.336Z,85.22
2023-01-29T11:04:32.360Z,85.57
2023-01-29T11:05:44.286Z,84.86
2023-01-29T11:06:46.216Z,86.17
2023-01-29T11:07:49.345Z,86.88
2023-01-29T11:09:11.716Z,86.03
2023-01-29T11:10:20.526Z,86.62
2023-01-29T11:11:39.452Z,86.62
2023-01-29T11:12:42.010Z,84.46
2023-01-29T11:13:52.982Z,84.15
2023-01-29T11:15:01.604Z,85.16
2023-01-29T11:16:05.372Z,84.47
2023-01-29T11:17:15.795Z,84.31
2023-01-29T11:18:17.451Z,85.03
2023-01-29T11:19:36.302Z,86.60
2023-01-29T11:20:37.848Z,85.77
2023-01-29T11:21:53.332Z,84.22
2023-01-29T11:22:55.726Z,86.55
2023-01-29T11:24:17.597Z,85.18
2023-01-29T11:25:20.289Z,85.90
2023-01-29T11:26:23.790Z,83.58
2023-01-29T11:27:29.491Z,83.56
2023-01-29T11:28:45.617Z,84.73
2023-01-29T11:29:51.139Z,85.53
2023-01-29T11:30:53.377Z,84.51
2023-01-29T11:31:55.334Z,83.39
2023-01-29T11:33:21.968Z,83.55
2023-01-29T11:34:27.784Z,84.77
2023-01-29T11:35:30.597Z,85.23
2023-01-29T11:36:38.335Z,86.14
2023-01-29T11:37:42.401Z,84.57
2023-01-29T11:38:43.839Z,85.96
2023-01-29T11:39:50.506Z,84.19
2023-01-29T11:40:52.693Z,83.99
2023-01-29T11:42:05.084Z,83.65
2023-01-29T11:43:18.798Z,84.78
2023-01-29T11:44:26.380Z,81.91
2023-01-29T11:45:32.160Z,83.38
2023-01-29T11:46:33.691Z,82.66
2023-01-29T11:47:35.464Z,82.24
2023-01-29T11:48:43.808Z,81.24
2023-01-29T11:49:49.480Z,81.83
2023-01-29T11:50:53.806Z,82.90
2023-01-29T11:51:56.591Z,81.64
2023-01-29T11:53:01.665Z,84.12
2023-01-29T11:54:05.226Z,83.73
2023-01-29T11:55:18.039Z,84.27
2023-01-29T11:56:45.941Z,83.33
2023-01-29T11:57:52.722Z,83.46
2023-01-29T11:58:57.549Z,80.70
2023-01-29T12:00:20.462Z,81.39
2023-01-29T12:01:42.136Z,83.39
2023-01-29T12:02:47.227Z,84.66
2023-01-29T12:03:53.862Z,83.09
2023-01-29T12:05:00.138Z,81.89
2023-01-29T12:06:08.992Z,84.04
2023-01-29T12:07:15.820Z,81.91
2023-01-29T12:08:18.857Z,82.91
2023-01-29T12:09:24.188Z,82.53
2023-01-29T12:10:40.843Z,84.50
2023-01-29T12:11:42.274Z,82.02
2023-01-29T12:12:43.829Z,81.04
2023-01-29T12:13:54.641Z,82.18
2023-01-29T12:15:14.120Z,82.77
2023-01-29T12:16:25.624Z,80.91
2023-01-29T12:17:30.744Z,82.91
2023-01-29T12:18:37.577Z,80.55
2023-01-29T12:19:46.326Z,82.26
2023-01-29T12:20:59.870Z,83.36
2023-01-29T12:22:35.300Z,81.03
2023-01-29T12:23:51.847Z,81.43
2023-01-29T12:25:16.311Z,81.24
2023-01-29T12:26:35.314Z,80.41
2023-01-29T12:28:09.567Z,81.01
2023-01-29T12:29:56.281Z,80.18
2023-01-29T12:31:00.489Z,80.02
2023-01-29T12:32:15.014Z,79.76
2023-01-29T12:33:26.659Z,79.67
2023-01-29T12:34:34.643Z,81.02
2023-01-29T12:35:44.122Z,81.57
2023-01-29T12:36:47.022Z,82.08
2023-01-29T12:38:00.913Z,82.11
2023-01-29T12:39:02.440Z,80.03
2023-01-29T12:40:21.707Z,80.09
2023-01-29T12:41:26.002Z,79.50
2023-01-29T12:42:28.064Z,82.42
2023-01-29T12:44:14.350Z,81.53
2023-01-29T12:45:22.663Z,80.71
2023-01-29T12:46:30.198Z,81.02
2023-01-29T12:47:38.223Z,79.24
2023-01-29T12:48:43.777Z,80.15
2023-01-29T12:49:50.164Z,79.50
2023-01-29T12:50:53.882Z,79.57
2023-01-29T12:52:07.353Z,79.77
2023-01-29T12:53:20.911Z,79.30
2023-01-29T12:54:31.207Z,79.86
2023-01-29T12:55:43.640Z,81.40
2023-01-29T12:56:49.825Z,81.13
2023-01-29T12:57:58.535Z,79.76
2023-01-29T12:59:04.504Z,81.42
2023-01-29T13:00:15.060Z,82.52
2023-01-29T13:01:32.025Z,81.31
2023-01-29T13:02:45.349Z,79.95
2023-01-29T13:03:59.463Z,80.75
2023-01-29T13:05:39.481Z,81.66
2023-01-29T13:06:50.869Z,80.70
2023-01-29T13:07:58.657Z,81.36
2023-01-29T13:09:04.948Z,81.39
2023-01-29T13:10:15.773Z,80.76
2023-01-29T13:11:23.380Z,82.08
2023-01-29T13:12:25.780Z,82.42
2023-01-29T13:13:54.364Z,81.88
2023-01-29T13:15:00.563Z,82.27
2023-01-29T13:16:07.299Z,81.80
2023-01-29T13:17:33.006Z,81.52
2023-01-29T13:18:48.364Z,80.39
2023-01-29T13:19:52.454Z,82.38
2023-01-29T13:20:54.425Z,81.92
2023-01-29T13:21:59.759Z,81.31
2023-01-29T13:23:15.241Z,80.60
2023-01-29T13:24:21.401Z,82.08
2023-01-29T13:25:22.859Z,80.80
2023-01-29T13:26:26.468Z,80.24
2023-01-29T13:27:30.625Z,81.32
2023-01-29T13:28:32.689Z,81.33
2023-01-29T13:29:34.382Z,81.84
2023-01-29T13:30:37.085Z,81.03
2023-01-29T13:31:41.196Z,81.04
2023-01-29T13:32:50.661Z,81.28
2023-01-29T13:34:15.429Z,81.40
2023-01-29T13:35:20.756Z,81.43
2023-01-29T13:36:27.767Z,80.91
2023-01-29T13:37:31.709Z,81.42
2023-01-29T13:38:35.341Z,82.02
2023-01-29T13:39:44.545Z,81.57
2023-01-29T13:40:50.837Z,82.00
2023-01-29T13:41:53.574Z,81.56
2023-01-29T13:42:58.930Z,82.07
2023-01-29T13:44:02.059Z,80.91
2023-01-29T13:45:05.425Z,82.25
2023-01-29T13:46:14.083Z,82.45
2023-01-29T13:47:28.386Z,82.15
2023-01-29T13:48:32.473Z,82.03
2023-01-29T13:49:53.109Z,82.46
2023-01-29T13:50:57.600Z,83.09
2023-01-29T13:52:13.791Z,83.09
2023-01-29T13:53:25.369Z,82.93
2023-01-29T13:54:27.724Z,82.64
2023-01-29T13:55:40.466Z,83.05
2023-01-29T13:56:48.841Z,82.77
2023-01-29T13:57:55.845Z,84.38
2023-01-29T13:58:57.865Z,83.18
2023-01-29T13:59:59.394Z,83.47
2023-01-29T14:01:03.652Z,83.28
2023-01-29T14:02:20.615Z,83.24
2023-01-29T14:03:24.923Z,83.93
2023-01-29T14:04:30.574Z,83.18
2023-01-29T14:05:32.052Z,83.15
2023-01-29T14:06:41.443Z,83.73
2023-01-29T14:07:45.834Z,83.86
2023-01-29T14:08:47.800Z,84.38
2023-01-29T14:10:01.066Z,84.73
2023-01-29T14:11:15.222Z,84.32
2023-01-29T14:12:22.769Z,85.13
2023-01-29T14:13:33.982Z,84.58
2023-01-29T14:14:56.980Z,84.76
2023-01-29T14:15:58.385Z,84.88
2023-01-29T14:17:02.285Z,86.26
2023-01-29T14:18:13.982Z,86.13
2023-01-29T14:19:19.187Z,86.61
2023-01-29T14:20:27.728Z,87.56
2023-01-29T14:21:36.985Z,86.65
2023-01-29T14:22:38.446Z,87.26
2023-01-29T14:23:51.313Z,86.86
2023-01-29T14:25:00.407Z,87.95
2023-01-29T14:26:05.371Z,87.35
2023-01-29T14:27:21.563Z,88.66
2023-01-29T14:28:26.015Z,87.88
2023-01-29T14:29:38.021Z,87.65